Time;durP1;ratioP1;P1;durP2;ratioP2;P2;SDS_P1;SDS_P2;PMS_P1;PMS_P2;Temp;Humidity;BMP_temperature;BMP_pressure;BME280_temperature;BME280_humidity;BME280_pressure;Samples;Min_cycle;Max_cycle;Signal;HPM_P1;HPM_P2
2022/04/12 00:02:35;;;;;;;6.97;3.38;;;7.10;99.90;;;;;;5094635;28;20031;-56
2022/04/12 00:05:13;;;;;;;10.40;3.35;;;7.10;99.90;;;;;;5095834;28;20051;-56
2022/04/12 00:07:57;;;;;;;4.55;3.42;;;7.10;99.90;;;;;;5095345;28;20040;-56
2022/04/12 00:10:38;;;;;;;7.85;3.42;;;7.10;99.90;;;;;;5095656;28;20039;-56
2022/04/12 00:13:13;;;;;;;5.55;3.38;;;7.00;99.90;;;;;;5095612;28;20040;-56
2022/04/12 00:15:43;;;;;;;7.20;3.15;;;7.00;99.90;;;;;;5094166;28;20082;-56
2022/04/12 00:21:19;;;;;;;6.63;3.38;;;6.90;99.90;;;;;;5095249;28;20390;-56
2022/04/12 00:23:58;;;;;;;4.80;3.20;;;6.90;99.90;;;;;;5095605;28;20044;-56
2022/04/12 00:26:35;;;;;;;9.75;3.95;;;6.90;99.90;;;;;;5095468;28;20105;-56
2022/04/12 00:29:12;;;;;;;4.70;3.22;;;6.90;99.90;;;;;;5095501;28;20036;-56
2022/04/12 00:31:47;;;;;;;8.35;3.42;;;6.90;99.90;;;;;;5095232;28;20028;-56
2022/04/12 00:34:33;;;;;;;9.60;3.63;;;6.90;99.90;;;;;;5094913;28;20032;-56
2022/04/12 00:37:12;;;;;;;4.72;3.72;;;6.80;99.90;;;;;;5094948;28;20058;-56
2022/04/12 00:39:57;;;;;;;4.00;3.25;;;6.80;99.90;;;;;;5094801;28;20044;-56
2022/04/12 00:42:42;;;;;;;5.05;3.63;;;6.80;99.90;;;;;;5094902;28;20119;-56
2022/04/12 00:45:12;;;;;;;;;;;6.80;99.90;;;;;;5095270;28;20043;-56
2022/04/12 00:47:48;;;;;;;7.32;4.07;;;6.80;99.90;;;;;;5094698;28;20456;-56
2022/04/12 00:50:25;;;;;;;7.05;4.00;;;6.80;99.90;;;;;;5094637;28;20123;-56
2022/04/12 00:53:11;;;;;;;5.00;3.80;;;6.80;99.90;;;;;;5094723;28;20079;-56
2022/04/12 00:55:53;;;;;;;6.40;4.32;;;6.80;99.90;;;;;;5094789;28;20074;-57
2022/04/12 00:58:32;;;;;;;6.45;4.03;;;6.80;99.90;;;;;;5094439;28;20049;-56
2022/04/12 01:01:25;;;;;;;7.28;4.07;;;6.70;99.90;;;;;;5094816;28;20035;-56
2022/04/12 01:04:11;;;;;;;8.55;4.82;;;6.80;99.90;;;;;;5094435;28;20436;-56
2022/04/12 01:06:47;;;;;;;7.57;4.07;;;6.70;99.90;;;;;;5094841;28;20112;-56
2022/04/12 01:09:35;;;;;;;6.38;4.10;;;6.70;99.90;;;;;;5094078;28;20075;-56
2022/04/12 01:12:21;;;;;;;6.82;4.13;;;6.70;99.90;;;;;;5094215;28;20052;-56
2022/04/12 01:14:55;;;;;;;7.03;3.80;;;6.70;99.90;;;;;;5094214;28;20040;-56
2022/04/12 01:17:25;;;;;;;6.22;4.05;;;6.70;99.90;;;;;;5093112;28;20328;-56
2022/04/12 01:20:00;;;;;;;7.88;4.32;;;6.70;99.90;;;;;;5094321;28;20044;-56
2022/04/12 01:22:36;;;;;;;8.70;5.13;;;6.70;99.90;;;;;;5094462;28;20046;-56
2022/04/12 01:25:21;;;;;;;8.85;4.22;;;6.60;99.90;;;;;;5093979;28;20089;-56
2022/04/12 01:27:56;;;;;;;5.63;4.45;;;6.60;99.90;;;;;;5093775;28;20040;-56
2022/04/12 01:30:36;;;;;;;7.15;4.63;;;6.60;99.90;;;;;;5094235;28;20077;-56
2022/04/12 01:33:15;;;;;;;7.55;5.03;;;6.60;99.90;;;;;;5094175;28;20494;-56
2022/04/12 01:36:00;;;;;;;9.27;4.75;;;6.60;99.90;;;;;;5093766;28;20040;-56
2022/04/12 01:38:43;;;;;;;7.43;4.63;;;6.60;99.90;;;;;;5093603;28;20048;-56
2022/04/12 01:41:17;;;;;;;7.72;4.28;;;6.60;99.90;;;;;;5093392;28;20036;-56
2022/04/12 01:43:53;;;;;;;7.47;4.32;;;6.60;99.90;;;;;;5093622;28;20044;-56
2022/04/12 01:46:24;;;;;;;7.65;4.38;;;6.60;99.90;;;;;;5093121;28;20094;-56
2022/04/12 01:48:57;;;;;;;7.10;5.10;;;6.60;99.90;;;;;;5093687;28;20074;-56
2022/04/12 01:51:40;;;;;;;11.57;5.28;;;6.60;99.90;;;;;;5093581;28;20048;-56
2022/04/12 01:54:22;;;;;;;11.73;5.20;;;6.60;99.90;;;;;;5093496;28;20032;-56
2022/04/12 01:57:02;;;;;;;7.80;4.85;;;6.60;99.90;;;;;;5093508;28;20040;-56
2022/04/12 01:59:42;;;;;;;8.40;5.38;;;6.60;99.90;;;;;;5093721;28;20074;-56
2022/04/12 02:02:27;;;;;;;7.68;5.18;;;6.60;99.90;;;;;;5093428;28;20066;-56
2022/04/12 02:05:11;;;;;;;10.20;5.53;;;6.50;99.90;;;;;;5093170;28;20509;-56
2022/04/12 02:07:44;;;;;;;9.68;5.30;;;6.50;99.90;;;;;;5093411;28;20043;-56
2022/04/12 02:10:22;;;;;;;7.97;5.85;;;6.50;99.90;;;;;;5093333;28;20071;-55
2022/04/12 02:12:57;;;;;;;12.10;5.50;;;6.40;99.90;;;;;;5093115;28;20044;-56
2022/04/12 02:15:33;;;;;;;10.85;6.03;;;6.40;99.90;;;;;;5075349;28;20110;-56
2022/04/12 02:18:03;;;;;;;10.07;5.60;;;6.40;99.90;;;;;;5093146;28;20051;-56
2022/04/12 02:20:40;;;;;;;10.45;5.65;;;6.40;99.90;;;;;;5093481;28;20098;-56
2022/04/12 02:23:23;;;;;;;10.18;6.20;;;6.30;99.90;;;;;;5092433;28;20047;-56
2022/04/12 02:25:52;;;;;;;10.13;6.10;;;6.30;99.90;;;;;;5091872;28;20083;-56
2022/04/12 02:28:27;;;;;;;9.98;5.57;;;6.30;99.90;;;;;;5093249;28;20089;-56
2022/04/12 02:30:56;;;;;;;14.10;6.55;;;6.30;99.90;;;;;;5092930;28;20130;-56
2022/04/12 02:33:38;;;;;;;11.82;6.55;;;6.40;99.90;;;;;;5092391;28;20085;-56
2022/04/12 02:36:23;;;;;;;9.65;5.43;;;6.30;99.90;;;;;;5092815;28;20036;-56
2022/04/12 02:39:11;;;;;;;9.02;6.10;;;6.30;99.90;;;;;;5091988;28;20055;-56
2022/04/12 02:41:50;;;;;;;8.65;6.15;;;6.30;99.90;;;;;;5092628;28;20040;-56
2022/04/12 02:44:24;;;;;;;9.88;6.63;;;6.30;99.90;;;;;;5092592;28;20074;-56
2022/04/12 02:47:14;;;;;;;13.10;6.43;;;6.30;99.90;;;;;;5092454;28;20044;-56
2022/04/12 02:50:01;;;;;;;;;;;6.30;99.90;;;;;;5092937;28;20036;-56
2022/04/12 02:52:46;;;;;;;8.52;6.28;;;6.30;99.90;;;;;;5092289;28;20006;-56
2022/04/12 02:55:34;;;;;;;12.80;6.93;;;6.20;99.90;;;;;;5092118;28;20040;-56
2022/04/12 02:58:18;;;;;;;9.55;7.18;;;6.20;99.90;;;;;;5092499;28;20036;-56
2022/04/12 03:00:58;;;;;;;12.35;6.78;;;6.20;99.90;;;;;;5092463;28;20036;-56
2022/04/12 03:03:36;;;;;;;11.25;7.07;;;6.20;99.90;;;;;;5091825;28;20070;-56
2022/04/12 03:06:18;;;;;;;8.88;6.25;;;6.20;99.90;;;;;;5092377;28;20044;-56
2022/04/12 03:09:02;;;;;;;10.70;6.90;;;6.20;99.90;;;;;;5092466;28;20094;-56
2022/04/12 03:11:39;;;;;;;11.48;7.72;;;6.20;99.90;;;;;;5092154;28;20093;-56
2022/04/12 03:14:11;;;;;;;8.27;6.60;;;6.20;99.90;;;;;;5092069;28;20036;-56
2022/04/12 03:16:46;;;;;;;12.50;7.15;;;6.30;99.90;;;;;;5091933;28;20066;-56
2022/04/12 03:19:19;;;;;;;14.63;9.57;;;6.30;99.90;;;;;;5092129;28;20032;-56
2022/04/12 03:22:02;;;;;;;12.40;7.47;;;6.30;99.90;;;;;;5092523;28;20044;-56
2022/04/12 03:24:39;;;;;;;12.55;9.02;;;6.30;99.90;;;;;;5092161;28;20075;-56
2022/04/12 03:27:17;;;;;;;13.98;9.00;;;6.30;99.90;;;;;;5092127;28;20486;-56
2022/04/12 03:29:53;;;;;;;13.10;8.38;;;6.30;99.90;;;;;;5092015;28;20066;-56
2022/04/12 03:32:34;;;;;;;18.17;9.27;;;6.40;99.90;;;;;;5091942;28;20485;-56
2022/04/12 03:35:10;;;;;;;14.10;9.30;;;6.30;99.90;;;;;;5092020;28;20359;-56
2022/04/12 03:37:50;;;;;;;12.85;9.23;;;6.30;99.90;;;;;;5096765;28;20054;-56
2022/04/12 03:40:45;;;;;;;14.77;9.70;;;6.30;99.90;;;;;;5097474;28;20152;-56
2022/04/12 03:43:29;;;;;;;16.67;9.60;;;6.30;99.90;;;;;;5098947;28;20040;-56
2022/04/12 03:46:09;;;;;;;16.02;9.57;;;6.30;99.90;;;;;;5098671;28;20044;-56
2022/04/12 03:48:53;;;;;;;17.13;9.93;;;6.30;99.90;;;;;;5097856;28;20044;-56
2022/04/12 03:51:30;;;;;;;16.25;9.60;;;6.20;99.90;;;;;;5098701;28;20036;-56
2022/04/12 03:54:07;;;;;;;14.77;9.43;;;6.20;99.90;;;;;;5098726;28;20060;-56
2022/04/12 03:56:45;;;;;;;14.88;9.95;;;6.30;99.90;;;;;;5098543;28;20044;-56
2022/04/12 03:59:18;;;;;;;18.42;10.65;;;6.20;99.90;;;;;;5098332;28;20043;-56
2022/04/12 04:01:49;;;;;;;17.67;11.05;;;6.20;99.90;;;;;;5098175;28;20036;-56
2022/04/12 04:04:16;;;;;;;17.40;10.55;;;6.30;99.90;;;;;;5098690;28;20036;-56
2022/04/12 04:06:56;;;;;;;18.50;12.10;;;6.20;99.90;;;;;;5098399;28;20288;-56
2022/04/12 04:09:41;;;;;;;15.93;11.70;;;6.30;99.90;;;;;;5098309;28;20115;-56
2022/04/12 04:12:18;;;;;;;19.52;12.18;;;6.20;99.90;;;;;;5098152;28;20046;-55
2022/04/12 04:14:51;;;;;;;17.83;11.93;;;6.30;99.90;;;;;;5098750;28;20040;-56
2022/04/12 04:17:30;;;;;;;23.30;11.77;;;6.20;99.90;;;;;;5098430;28;20036;-56
2022/04/12 04:20:20;;;;;;;16.13;12.07;;;6.20;99.90;;;;;;5098021;28;20032;-56
2022/04/12 04:23:04;;;;;;;16.17;11.45;;;6.20;99.90;;;;;;5098121;28;20090;-56
2022/04/12 04:25:43;;;;;;;15.50;11.15;;;6.20;99.90;;;;;;5098258;28;20050;-56
2022/04/12 04:28:42;;;;;;;15.65;11.18;;;6.20;99.90;;;;;;5098194;28;20508;-56
2022/04/12 04:31:14;;;;;;;17.50;10.75;;;6.20;99.90;;;;;;5097815;28;20046;-56
2022/04/12 04:33:57;;;;;;;15.90;10.20;;;6.10;99.90;;;;;;5096689;28;20052;-56
2022/04/12 04:36:39;;;;;;;15.80;10.43;;;6.10;99.90;;;;;;5095408;28;20056;-55
2022/04/12 04:39:24;;;;;;;13.10;10.10;;;6.10;99.90;;;;;;5097501;28;20403;-55
2022/04/12 04:42:07;;;;;;;12.10;10.02;;;6.10;99.90;;;;;;5097894;28;20048;-56
2022/04/12 04:44:45;;;;;;;15.13;11.13;;;6.10;99.90;;;;;;5097998;28;20043;-56
2022/04/12 04:47:23;;;;;;;13.30;10.07;;;6.10;99.90;;;;;;5096844;28;20455;-56
2022/04/12 04:49:48;;;;;;;15.48;11.15;;;6.10;99.90;;;;;;5094683;28;20043;-56
2022/04/12 04:52:14;;;;;;;16.55;10.68;;;6.10;99.90;;;;;;5094973;28;20043;-56
2022/04/12 04:54:39;;;;;;;13.77;9.95;;;6.10;99.90;;;;;;5092024;28;20068;-56
2022/04/12 04:57:05;;;;;;;12.65;9.00;;;6.10;99.90;;;;;;5093180;28;20052;-56
2022/04/12 04:59:31;;;;;;;14.35;10.05;;;6.00;99.90;;;;;;5094702;28;20036;-56
2022/04/12 05:01:56;;;;;;;14.07;9.80;;;6.00;99.90;;;;;;5094942;28;20043;-56
2022/04/12 05:04:22;;;;;;;14.68;9.65;;;6.10;99.90;;;;;;5094389;28;20093;-56
2022/04/12 05:06:47;;;;;;;17.45;9.85;;;6.10;99.90;;;;;;5094345;28;20086;-56
2022/04/12 05:09:13;;;;;;;12.25;9.52;;;6.10;99.90;;;;;;5094599;28;20044;-56
2022/04/12 05:11:39;;;;;;;14.85;10.13;;;6.00;99.90;;;;;;5094550;28;20089;-56
2022/04/12 05:14:04;;;;;;;13.63;9.73;;;6.10;99.90;;;;;;5094349;28;20040;-56
2022/04/12 05:16:30;;;;;;;13.77;9.77;;;6.00;99.90;;;;;;5094812;28;20040;-56
2022/04/12 05:18:56;;;;;;;16.55;9.73;;;6.10;99.90;;;;;;5094429;28;20533;-56
2022/04/12 05:21:21;;;;;;;18.10;10.63;;;6.10;99.90;;;;;;5094267;28;20036;-56
2022/04/12 05:23:47;;;;;;;14.63;9.32;;;6.10;99.90;;;;;;5094339;28;20072;-56
2022/04/12 05:26:12;;;;;;;16.23;10.20;;;6.10;99.90;;;;;;5094401;28;20464;-56
2022/04/12 05:28:38;;;;;;;16.83;9.52;;;6.20;99.90;;;;;;5094320;28;20051;-56
2022/04/12 05:31:04;;;;;;;14.20;9.80;;;6.20;99.90;;;;;;5094422;28;20044;-56
2022/04/12 05:33:29;;;;;;;16.10;10.23;;;6.30;99.90;;;;;;5094093;28;20040;-56
2022/04/12 05:35:55;;;;;;;13.48;8.52;;;6.40;99.90;;;;;;5094138;28;20475;-57
2022/04/12 05:38:20;;;;;;;13.40;8.93;;;6.50;99.90;;;;;;5093534;28;20059;-56
2022/04/12 05:40:46;;;;;;;14.25;9.15;;;6.60;99.90;;;;;;5094083;28;20032;-56
2022/04/12 05:43:12;;;;;;;16.02;10.10;;;6.70;99.90;;;;;;5092860;28;20462;-56
2022/04/12 05:45:37;;;;;;;13.02;9.55;;;6.80;99.90;;;;;;5094085;28;20044;-56
2022/04/12 05:48:03;;;;;;;11.45;9.23;;;6.90;99.90;;;;;;5093997;28;20470;-55
2022/04/12 05:50:29;;;;;;;12.68;9.15;;;7.10;99.90;;;;;;5094008;28;20110;-55
2022/04/12 05:52:55;;;;;;;15.18;9.18;;;7.30;99.90;;;;;;5093657;28;20040;-55
2022/04/12 05:55:23;;;;;;;13.85;9.20;;;7.40;99.90;;;;;;5094020;28;20043;-55
2022/04/12 05:57:54;;;;;;;13.80;9.20;;;7.50;99.90;;;;;;5093506;28;20181;-56
2022/04/12 06:00:21;;;;;;;15.10;9.20;;;7.50;99.90;;;;;;5093603;28;20040;-58
2022/04/12 06:02:48;;;;;;;14.52;9.77;;;7.40;99.90;;;;;;5094058;28;20036;-58
2022/04/12 06:05:15;;;;;;;14.02;9.40;;;7.40;99.90;;;;;;5093021;28;20537;-59
2022/04/12 06:07:41;;;;;;;15.63;9.35;;;7.40;99.90;;;;;;5092887;28;20047;-58
2022/04/12 06:10:08;;;;;;;13.48;9.25;;;7.30;99.90;;;;;;5093503;28;20036;-58
2022/04/12 06:12:34;;;;;;;11.05;8.90;;;7.30;99.90;;;;;;5093424;28;20032;-58
2022/04/12 06:15:00;;;;;;;12.27;9.10;;;7.30;99.90;;;;;;5093192;28;20089;-59
2022/04/12 06:17:34;;;;;;;13.20;9.98;;;7.40;99.90;;;;;;5093485;28;20036;-58
2022/04/12 06:20:05;;;;;;;15.23;9.68;;;7.40;99.90;;;;;;5092033;28;20036;-58
2022/04/12 06:22:31;;;;;;;17.25;10.23;;;7.50;99.90;;;;;;5093116;28;20047;-58
2022/04/12 06:24:57;;;;;;;13.57;9.63;;;7.50;99.90;;;;;;5092964;28;20032;-58
2022/04/12 06:27:36;;;;;;;14.77;10.18;;;7.60;99.90;;;;;;5093440;28;20577;-58
2022/04/12 06:30:05;;;;;;;12.88;9.32;;;7.70;99.90;;;;;;5093306;28;20044;-58
2022/04/12 06:32:32;;;;;;;11.90;9.10;;;7.70;99.90;;;;;;5093019;28;20043;-58
2022/04/12 06:34:57;;;;;;;14.90;9.68;;;7.80;99.90;;;;;;5092918;28;20035;-58
2022/04/12 06:37:25;;;;;;;13.00;9.98;;;7.90;99.90;;;;;;5092640;28;20036;-58
2022/04/12 06:39:51;;;;;;;14.38;9.40;;;7.90;99.90;;;;;;5092679;28;20059;-59
2022/04/12 06:42:16;;;;;;;17.30;10.20;;;8.10;99.90;;;;;;5092924;28;20048;-60
2022/04/12 06:44:42;;;;;;;11.88;8.40;;;8.10;99.90;;;;;;5091659;28;20051;-59
2022/04/12 06:47:08;;;;;;;17.58;9.93;;;8.20;99.90;;;;;;5092659;28;20051;-58
2022/04/12 06:49:34;;;;;;;14.18;8.63;;;8.20;99.90;;;;;;5092820;28;20032;-59
2022/04/12 06:51:59;;;;;;;16.70;9.32;;;8.20;99.90;;;;;;5092386;28;20043;-59
2022/04/12 06:54:26;;;;;;;13.77;9.32;;;8.30;99.90;;;;;;5092447;28;20078;-59
2022/04/12 06:56:51;;;;;;;12.82;9.57;;;8.30;99.90;;;;;;5092792;28;20035;-58
2022/04/12 06:59:17;;;;;;;12.70;9.15;;;8.30;99.90;;;;;;5092811;28;20474;-59
2022/04/12 07:01:43;;;;;;;12.65;9.02;;;8.40;99.90;;;;;;5092507;28;20036;-58
2022/04/12 07:04:09;;;;;;;15.77;9.25;;;8.40;99.90;;;;;;5092293;28;20187;-59
2022/04/12 07:06:35;;;;;;;12.70;9.18;;;8.40;99.90;;;;;;5092270;28;20036;-59
2022/04/12 07:09:01;;;;;;;11.52;8.75;;;8.50;99.90;;;;;;5092814;28;20043;-59
2022/04/12 07:11:27;;;;;;;13.25;9.23;;;8.50;99.90;;;;;;5091760;28;20553;-60
2022/04/12 07:13:52;;;;;;;14.63;9.10;;;8.50;99.90;;;;;;5092397;28;20139;-59
2022/04/12 07:16:18;;;;;;;14.32;9.95;;;8.50;99.90;;;;;;5092452;28;20036;-59
2022/04/12 07:18:44;;;;;;;14.15;8.65;;;8.60;99.90;;;;;;5092431;28;20032;-59
2022/04/12 07:21:09;;;;;;;14.82;8.85;;;8.70;99.90;;;;;;5092343;28;20032;-59
2022/04/12 07:23:36;;;;;;;13.38;8.73;;;8.70;99.90;;;;;;5092384;28;20050;-58
2022/04/12 07:26:05;;;;;;;11.32;9.10;;;8.90;99.90;;;;;;5091463;28;20052;-59
2022/04/12 07:28:31;;;;;;;20.58;9.48;;;9.20;99.90;;;;;;5092370;28;20039;-58
2022/04/12 07:30:57;;;;;;;12.25;8.50;;;9.50;99.90;;;;;;5092128;28;20111;-59
2022/04/12 07:33:23;;;;;;;13.13;9.35;;;9.80;99.90;;;;;;5090590;28;20050;-59
2022/04/12 07:35:48;;;;;;;13.73;8.25;;;10.00;99.90;;;;;;5092002;28;20372;-59
2022/04/12 07:38:14;;;;;;;16.17;8.98;;;10.30;99.90;;;;;;5091458;28;20052;-59
2022/04/12 07:40:39;;;;;;;13.93;9.10;;;10.60;99.90;;;;;;5092299;28;20048;-59
2022/04/12 07:43:05;;;;;;;12.93;8.55;;;10.80;99.90;;;;;;5091900;28;20051;-59
2022/04/12 07:45:31;;;;;;;11.88;9.40;;;10.90;99.90;;;;;;5092147;28;20040;-60
2022/04/12 07:47:56;;;;;;;12.27;9.18;;;11.20;99.90;;;;;;5090646;28;20051;-60
2022/04/12 07:50:22;;;;;;;13.18;8.80;;;11.50;99.90;;;;;;5091855;28;20083;-59
2022/04/12 07:52:48;;;;;;;10.15;8.77;;;11.70;99.90;;;;;;5091710;28;20075;-58
2022/04/12 07:55:13;;;;;;;12.70;8.63;;;12.00;99.90;;;;;;5092108;28;20040;-59
2022/04/12 07:57:39;;;;;;;14.23;8.60;;;12.00;99.90;;;;;;5092209;28;20036;-59
2022/04/12 08:00:05;;;;;;;11.98;8.32;;;12.30;99.90;;;;;;5091923;28;20028;-59
2022/04/12 08:02:31;;;;;;;11.02;8.38;;;12.30;99.90;;;;;;5090441;28;20109;-59
2022/04/12 08:04:56;;;;;;;11.30;7.95;;;12.60;99.90;;;;;;5091897;28;20048;-59
2022/04/12 08:07:22;;;;;;;11.80;8.88;;;12.80;99.90;;;;;;5091903;28;20805;-59
2022/04/12 08:09:48;;;;;;;11.35;8.65;;;13.00;99.90;;;;;;5091985;28;20036;-60
2022/04/12 08:12:13;;;;;;;10.50;8.18;;;12.90;99.90;;;;;;5091835;28;20044;-59
2022/04/12 08:14:42;;;;;;;14.80;8.67;;;13.00;99.90;;;;;;5090717;28;20044;-60
2022/04/12 08:17:07;;;;;;;16.15;8.38;;;13.40;99.90;;;;;;5091789;28;20273;-60
2022/04/12 08:19:33;;;;;;;10.55;8.30;;;13.50;99.90;;;;;;5091686;28;20042;-60
2022/04/12 08:22:01;;;;;;;13.90;8.90;;;13.60;99.90;;;;;;5092033;28;20471;-60
2022/04/12 08:24:27;;;;;;;12.43;8.80;;;13.70;99.90;;;;;;5093305;28;20470;-60
2022/04/12 08:26:52;;;;;;;10.38;8.55;;;13.80;99.90;;;;;;5095624;28;20078;-60
2022/04/12 08:29:18;;;;;;;9.63;8.10;;;13.60;99.90;;;;;;5095431;28;20061;-60
2022/04/12 08:31:44;;;;;;;16.58;8.20;;;14.00;99.90;;;;;;5095285;28;20040;-59
2022/04/12 08:34:10;;;;;;;9.85;8.23;;;14.10;99.90;;;;;;5095263;28;20048;-60
2022/04/12 08:36:36;;;;;;;11.15;7.45;;;14.40;99.90;;;;;;5095210;28;20435;-59
2022/04/12 08:39:02;;;;;;;11.13;7.30;;;14.40;99.90;;;;;;5094911;28;20079;-60
2022/04/12 08:41:29;;;;;;;12.13;8.63;;;14.50;99.90;;;;;;5095237;28;20089;-60
2022/04/12 08:43:57;;;;;;;10.73;8.07;;;14.50;99.90;;;;;;5095122;28;20082;-59
2022/04/12 08:46:25;;;;;;;11.38;8.65;;;14.80;99.90;;;;;;5095009;28;20485;-59
2022/04/12 08:48:56;;;;;;;11.18;8.52;;;14.70;99.90;;;;;;5094858;28;20043;-60
2022/04/12 08:51:22;;;;;;;11.80;8.13;;;14.90;99.90;;;;;;5095204;28;20051;-60
2022/04/12 08:53:51;;;;;;;9.75;8.07;;;14.90;99.90;;;;;;5094937;28;20036;-60
2022/04/12 08:56:17;;;;;;;11.48;8.68;;;15.00;99.90;;;;;;5094961;28;20032;-60
2022/04/12 08:58:43;;;;;;;12.68;8.05;;;15.10;99.90;;;;;;5094803;28;20050;-59
2022/04/12 09:01:09;;;;;;;9.30;7.53;;;15.00;99.90;;;;;;5094778;28;20032;-60
2022/04/12 09:03:35;;;;;;;21.33;8.65;;;15.20;99.90;;;;;;5094860;28;20040;-58
2022/04/12 09:06:01;;;;;;;10.40;8.25;;;15.50;99.90;;;;;;5094867;28;20042;-57
2022/04/12 09:08:31;;;;;;;11.80;8.10;;;15.20;99.90;;;;;;5093471;28;20028;-57
2022/04/12 09:11:05;;;;;;;12.90;9.15;;;15.40;99.90;;;;;;5094624;28;20043;-57
2022/04/12 09:13:32;;;;;;;11.68;7.65;;;15.50;99.90;;;;;;5094493;28;20078;-57
2022/04/12 09:15:59;;;;;;;13.85;8.68;;;15.70;99.90;;;;;;5094419;28;20075;-57
2022/04/12 09:18:31;;;;;;;10.43;8.65;;;15.70;99.90;;;;;;5094528;28;20036;-57
2022/04/12 09:21:18;;;;;;;16.70;7.93;;;15.80;99.90;;;;;;5094442;28;20032;-58
2022/04/12 09:23:52;;;;;;;12.65;8.65;;;15.80;99.90;;;;;;5094293;28;20385;-57
2022/04/12 09:26:22;;;;;;;10.55;8.60;;;15.70;99.90;;;;;;5094235;28;20067;-58
2022/04/12 09:28:48;;;;;;;11.93;8.38;;;15.80;99.90;;;;;;5094400;28;20036;-59
2022/04/12 09:31:17;;;;;;;12.52;8.27;;;15.90;99.90;;;;;;5094028;28;20038;-59
2022/04/12 09:33:45;;;;;;;11.38;8.15;;;16.10;99.90;;;;;;5093636;28;20040;-59
2022/04/12 09:36:11;;;;;;;11.50;8.57;;;16.40;99.90;;;;;;5094157;28;20032;-59
2022/04/12 09:38:40;;;;;;;13.15;8.98;;;16.80;99.90;;;;;;5093697;28;20136;-59
2022/04/12 09:41:23;;;;;;;12.00;8.32;;;16.70;99.80;;;;;;5094324;28;20040;-59
2022/04/12 09:43:52;;;;;;;13.48;8.45;;;17.00;99.90;;;;;;5094238;28;20115;-59
2022/04/12 09:46:18;;;;;;;8.93;7.90;;;16.80;99.90;;;;;;5093951;28;20032;-58
2022/04/12 09:48:48;;;;;;;9.40;8.13;;;16.70;99.60;;;;;;5093923;28;20032;-59
2022/04/12 09:51:15;;;;;;;13.02;9.15;;;17.10;99.60;;;;;;5093743;28;20054;-59
2022/04/12 09:53:45;;;;;;;12.23;8.20;;;17.00;99.90;;;;;;5093884;28;20032;-59
2022/04/12 09:56:14;;;;;;;13.10;8.05;;;17.20;99.90;;;;;;5093835;28;20040;-59
2022/04/12 09:58:40;;;;;;;12.57;8.65;;;17.10;99.90;;;;;;5092364;28;20047;-59
2022/04/12 10:01:08;;;;;;;12.93;8.27;;;17.30;99.90;;;;;;5093597;28;20032;-58
2022/04/12 10:03:36;;;;;;;12.88;8.35;;;17.40;99.90;;;;;;5093502;28;20081;-59
2022/04/12 10:06:03;;;;;;;12.30;8.70;;;17.20;99.90;;;;;;5093668;28;20102;-59
2022/04/12 10:08:33;;;;;;;15.23;7.82;;;17.20;99.90;;;;;;5093800;28;20474;-59
2022/04/12 10:10:59;;;;;;;9.05;8.13;;;17.50;99.90;;;;;;5093512;28;20032;-59
2022/04/12 10:13:26;;;;;;;9.75;7.20;;;17.50;99.90;;;;;;5093141;28;20036;-59
2022/04/12 10:15:52;;;;;;;10.85;8.98;;;17.70;99.90;;;;;;5093225;28;20040;-59
2022/04/12 10:18:20;;;;;;;11.02;8.40;;;17.70;99.90;;;;;;5093272;28;20044;-59
2022/04/12 10:20:46;;;;;;;9.52;8.23;;;17.80;99.90;;;;;;5093236;28;20405;-59
2022/04/12 10:23:16;;;;;;;13.05;8.80;;;18.10;99.90;;;;;;5093324;28;20044;-58
2022/04/12 10:25:42;;;;;;;11.07;8.30;;;18.20;99.90;;;;;;5093208;28;20047;-59
2022/04/12 10:28:09;;;;;;;10.65;9.00;;;18.10;99.10;;;;;;5093065;28;20032;-60
2022/04/12 10:30:34;;;;;;;12.50;8.05;;;18.00;99.30;;;;;;5092791;28;20124;-59
2022/04/12 10:33:26;;;;;;;9.02;7.55;;;18.20;99.90;;;;;;5092857;28;20115;-59
2022/04/12 10:35:55;;;;;;;14.90;9.13;;;18.30;99.60;;;;;;5093074;28;20071;-59
2022/04/12 10:38:36;;;;;;;13.18;7.75;;;18.40;99.00;;;;;;5093039;28;20106;-59
2022/04/12 10:41:14;;;;;;;10.18;8.50;;;18.60;99.30;;;;;;5091914;28;20055;-59
2022/04/12 10:43:39;;;;;;;11.23;8.25;;;19.00;98.30;;;;;;5092820;28;20105;-59
2022/04/12 10:46:11;;;;;;;10.73;8.80;;;18.80;98.00;;;;;;5090015;28;20444;-59
2022/04/12 10:48:38;;;;;;;13.43;8.63;;;18.70;98.10;;;;;;5092525;28;20115;-60
2022/04/12 10:51:05;;;;;;;13.43;8.98;;;18.80;97.60;;;;;;5092280;28;20039;-58
2022/04/12 10:53:37;;;;;;;10.90;7.55;;;18.70;98.00;;;;;;5087160;28;20035;-60
2022/04/12 10:56:11;;;;;;;13.90;7.97;;;18.90;98.30;;;;;;5092249;28;20097;-59
2022/04/12 10:58:38;;;;;;;11.40;8.55;;;18.90;98.00;;;;;;5092412;28;20121;-58
2022/04/12 11:01:05;;;;;;;9.70;7.97;;;18.90;97.60;;;;;;5092526;28;20040;-59
2022/04/12 11:03:40;;;;;;;11.70;7.75;;;18.80;98.20;;;;;;5092452;28;20118;-58
2022/04/12 11:06:26;;;;;;;10.90;8.40;;;19.20;98.60;;;;;;5092383;28;20094;-59
2022/04/12 11:09:10;;;;;;;12.45;8.63;;;19.00;98.70;;;;;;5092558;28;20068;-59
2022/04/12 11:11:41;;;;;;;12.73;8.85;;;18.80;97.80;;;;;;5092296;28;20040;-59
2022/04/12 11:14:29;;;;;;;11.68;9.13;;;18.90;98.10;;;;;;5092156;28;20474;-59
2022/04/12 11:17:01;;;;;;;11.05;8.32;;;18.90;97.80;;;;;;5092585;28;20043;-59
2022/04/12 11:19:28;;;;;;;12.07;7.85;;;19.00;98.30;;;;;;5092089;28;20044;-59
2022/04/12 11:21:57;;;;;;;10.75;8.02;;;19.30;98.50;;;;;;5092190;28;20615;-59
2022/04/12 11:24:23;;;;;;;;;;;19.20;97.40;;;;;;5092483;28;20036;-59
2022/04/12 11:27:02;;;;;;;9.48;8.00;;;19.10;97.30;;;;;;5091969;28;19916;-59
2022/04/12 11:29:28;;;;;;;11.07;8.50;;;19.20;97.80;;;;;;5092395;28;20036;-59
2022/04/12 11:31:55;;;;;;;11.30;8.70;;;19.20;97.80;;;;;;5091953;28;20048;-59
2022/04/12 11:34:23;;;;;;;11.32;8.48;;;19.40;97.60;;;;;;5091976;28;20528;-60
2022/04/12 11:36:54;;;;;;;9.65;8.48;;;19.30;98.10;;;;;;5092099;28;20036;-60
2022/04/12 11:39:21;;;;;;;11.27;9.15;;;19.40;98.50;;;;;;5091718;28;20044;-60
2022/04/12 11:41:48;;;;;;;15.93;8.95;;;19.30;98.30;;;;;;5091922;28;20047;-59
2022/04/12 11:44:13;;;;;;;10.77;8.77;;;19.30;98.40;;;;;;5092258;28;20062;-60
2022/04/12 11:46:39;;;;;;;13.95;8.55;;;19.30;97.90;;;;;;5092972;28;20035;-59
2022/04/12 11:49:10;;;;;;;13.38;8.48;;;19.70;97.60;;;;;;5093157;28;20093;-59
2022/04/12 11:51:41;;;;;;;11.48;8.88;;;19.80;97.30;;;;;;5092804;28;20505;-60
2022/04/12 11:54:24;;;;;;;11.18;8.63;;;20.10;97.90;;;;;;5092803;28;20123;-60
2022/04/12 11:57:10;;;;;;;9.93;8.10;;;20.20;97.90;;;;;;5091871;28;20079;-59
2022/04/12 11:59:48;;;;;;;13.60;10.15;;;20.30;97.60;;;;;;5097328;28;20054;-59
2022/04/12 12:02:15;;;;;;;13.23;9.15;;;20.30;97.60;;;;;;5096024;28;20752;-59
2022/04/12 12:04:47;;;;;;;10.88;8.93;;;20.30;97.50;;;;;;5097035;28;20044;-59
2022/04/12 12:07:13;;;;;;;11.45;8.48;;;20.00;97.90;;;;;;5097060;28;20097;-59
2022/04/12 12:09:51;;;;;;;10.32;8.43;;;20.20;98.10;;;;;;5095979;28;20036;-62
2022/04/12 12:12:17;;;;;;;10.60;8.43;;;20.70;97.80;;;;;;5096659;28;20046;-61
2022/04/12 12:14:43;;;;;;;10.95;7.80;;;20.60;97.60;;;;;;5096678;28;20115;-59
2022/04/12 12:17:18;;;;;;;10.20;8.82;;;20.80;97.80;;;;;;5096036;28;20048;-60
2022/04/12 12:19:44;;;;;;;9.65;8.63;;;20.70;97.30;;;;;;5096759;28;20093;-59
2022/04/12 12:22:12;;;;;;;14.98;9.32;;;20.50;97.70;;;;;;5096515;28;20790;-60
2022/04/12 12:24:50;;;;;;;11.75;9.07;;;20.30;97.60;;;;;;5096703;28;20078;-59
2022/04/12 12:27:27;;;;;;;12.50;8.98;;;20.40;98.00;;;;;;5077939;28;20056;-59
2022/04/12 12:30:09;;;;;;;11.30;8.73;;;20.40;97.20;;;;;;5096733;28;20461;-59
2022/04/12 12:32:36;;;;;;;17.00;8.75;;;20.10;98.10;;;;;;5096699;28;20043;-59
2022/04/12 12:35:07;;;;;;;10.07;8.68;;;20.20;97.90;;;;;;5096156;28;20039;-59
2022/04/12 12:37:33;;;;;;;11.15;7.95;;;20.20;97.70;;;;;;5096517;28;20044;-59
2022/04/12 12:39:58;;;;;;;11.95;8.50;;;20.20;98.00;;;;;;5096092;28;20052;-59
2022/04/12 12:42:24;;;;;;;11.00;8.45;;;20.40;97.70;;;;;;5096252;28;20375;-59
2022/04/12 12:44:50;;;;;;;9.05;7.90;;;20.30;97.40;;;;;;5096406;28;20050;-58
2022/04/12 12:47:15;;;;;;;11.50;8.52;;;20.60;97.80;;;;;;5096070;28;20040;-59
2022/04/12 12:49:42;;;;;;;15.05;8.60;;;20.60;97.70;;;;;;5096064;28;20079;-58
2022/04/12 12:52:10;;;;;;;13.05;8.05;;;20.60;97.50;;;;;;5095815;28;20044;-58
2022/04/12 12:54:36;;;;;;;10.27;8.23;;;20.40;97.70;;;;;;5078120;28;20040;-58
2022/04/12 12:57:05;;;;;;;11.35;8.10;;;20.20;97.10;;;;;;5096134;28;20036;-58
2022/04/12 12:59:33;;;;;;;12.75;9.05;;;20.20;97.90;;;;;;5095963;28;20071;-58
2022/04/12 13:02:10;;;;;;;15.32;9.73;;;20.20;97.40;;;;;;5096291;28;20028;-58
2022/04/12 13:04:38;;;;;;;12.48;8.40;;;20.40;97.70;;;;;;5095839;28;20032;-58
2022/04/12 13:07:08;;;;;;;12.73;8.18;;;20.50;97.40;;;;;;5095485;28;20398;-58
2022/04/12 13:09:44;;;;;;;11.88;8.95;;;20.70;97.20;;;;;;5094971;28;20036;-59
2022/04/12 13:12:11;;;;;;;13.18;8.98;;;20.80;97.40;;;;;;5095568;28;20074;-58
2022/04/12 13:14:37;;;;;;;13.45;9.00;;;20.70;97.00;;;;;;5095668;28;20447;-58